Time;durP1;ratioP1;P1;durP2;ratioP2;P2;SDS_P1;SDS_P2;PMS_P1;PMS_P2;Temp;Humidity;BMP_temperature;BMP_pressure;BME280_temperature;BME280_humidity;BME280_pressure;Samples;Min_cycle;Max_cycle;Signal;HPM_P1;HPM_P2
2021/11/02 00:01:35;;;;;;;6.70;2.10;;;7.60;99.90;;;;;;5104824;28;20281;-71
2021/11/02 00:04:03;;;;;;;4.80;2.23;;;7.80;99.90;;;;;;5099635;28;20205;-71
2021/11/02 00:06:30;;;;;;;2.77;1.77;;;7.60;99.90;;;;;;5096203;28;20636;-70
2021/11/02 00:08:57;;;;;;;4.50;1.90;;;7.90;99.90;;;;;;5094226;28;20204;-70
2021/11/02 00:11:23;;;;;;;5.47;2.17;;;8.00;99.90;;;;;;5111605;28;20291;-70
2021/11/02 00:13:56;;;;;;;6.33;2.20;;;7.90;99.90;;;;;;5093795;28;20221;-70
2021/11/02 00:16:25;;;;;;;4.67;2.30;;;7.90;99.90;;;;;;5107376;28;20225;-70
2021/11/02 00:18:59;;;;;;;3.87;1.70;;;8.10;99.90;;;;;;5097127;28;20242;-71
2021/11/02 00:21:28;;;;;;;2.90;1.90;;;7.80;99.90;;;;;;5111290;28;20259;-74
2021/11/02 00:24:08;;;;;;;5.80;2.03;;;7.90;99.90;;;;;;5093564;28;20255;-75
2021/11/02 00:26:35;;;;;;;5.77;2.20;;;7.90;99.90;;;;;;5108969;28;20204;-71
2021/11/02 00:29:02;;;;;;;3.73;2.00;;;7.90;99.90;;;;;;5098177;28;20201;-71
2021/11/02 00:31:31;;;;;;;6.27;2.53;;;7.80;99.90;;;;;;5091205;28;20656;-71
2021/11/02 00:33:58;;;;;;;5.90;2.10;;;7.50;99.90;;;;;;5104411;28;20217;-71
2021/11/02 00:36:25;;;;;;;5.40;2.10;;;7.50;99.90;;;;;;5095560;28;20280;-71
2021/11/02 00:38:52;;;;;;;2.60;1.80;;;7.50;99.90;;;;;;5109501;28;20211;-71
2021/11/02 00:41:19;;;;;;;5.93;1.87;;;7.30;99.90;;;;;;5111210;28;20744;-71
2021/11/02 00:43:48;;;;;;;5.90;2.17;;;7.40;99.90;;;;;;5094056;28;20254;-71
2021/11/02 00:46:15;;;;;;;3.83;1.80;;;7.70;99.90;;;;;;5090842;28;20208;-71
2021/11/02 00:48:43;;;;;;;6.87;2.40;;;7.80;99.90;;;;;;5097623;28;20523;-71
2021/11/02 00:51:10;;;;;;;6.03;2.17;;;8.00;99.90;;;;;;5107125;28;20214;-76
2021/11/02 00:53:37;;;;;;;4.57;2.50;;;7.90;99.90;;;;;;5110566;28;20231;-70
2021/11/02 00:56:05;;;;;;;4.63;2.13;;;8.00;99.90;;;;;;5107319;28;20655;-71
2021/11/02 00:58:32;;;;;;;4.67;2.10;;;7.90;99.90;;;;;;5096222;28;20212;-71
2021/11/02 01:00:59;;;;;;;4.30;1.93;;;7.70;99.90;;;;;;5099982;28;20205;-76
2021/11/02 01:03:26;;;;;;;4.33;2.00;;;7.70;99.90;;;;;;5111402;28;20197;-76
2021/11/02 01:05:55;;;;;;;3.90;2.03;;;7.80;99.90;;;;;;5107998;28;20283;-79
2021/11/02 01:08:22;;;;;;;2.40;2.20;;;7.80;99.90;;;;;;5095539;28;20209;-79
2021/11/02 01:10:49;;;;;;;5.53;2.03;;;7.60;99.90;;;;;;5091037;28;20198;-77
2021/11/02 01:13:17;;;;;;;3.30;2.00;;;7.50;99.90;;;;;;5090762;28;20232;-77
2021/11/02 01:15:44;;;;;;;4.60;2.20;;;7.60;99.90;;;;;;5091008;28;20263;-77
2021/11/02 01:18:11;;;;;;;3.33;2.00;;;7.30;99.90;;;;;;5094786;28;20206;-77
2021/11/02 01:20:39;;;;;;;3.80;2.07;;;7.20;99.90;;;;;;5099727;28;20624;-75
2021/11/02 01:23:08;;;;;;;5.13;2.40;;;7.30;99.90;;;;;;5101639;28;20243;-76
2021/11/02 01:25:35;;;;;;;5.37;2.00;;;7.30;99.90;;;;;;5111885;28;20243;-76
2021/11/02 01:28:02;;;;;;;6.23;2.23;;;7.30;99.90;;;;;;5106513;28;20257;-71
2021/11/02 01:30:30;;;;;;;6.77;2.10;;;7.20;99.90;;;;;;5111501;28;20208;-71
2021/11/02 01:32:57;;;;;;;5.97;3.80;;;7.10;99.90;;;;;;5102655;28;20224;-74
2021/11/02 01:35:24;;;;;;;6.50;1.93;;;7.20;99.90;;;;;;5108323;28;20201;-71
2021/11/02 01:37:51;;;;;;;4.63;2.13;;;7.40;99.90;;;;;;5113222;28;20209;-70
2021/11/02 01:40:20;;;;;;;6.33;2.03;;;7.50;99.90;;;;;;5100313;28;20208;-71
2021/11/02 01:42:47;;;;;;;4.50;1.90;;;7.70;99.90;;;;;;5105563;28;20208;-71
2021/11/02 01:45:17;;;;;;;5.17;2.10;;;7.50;99.90;;;;;;5107768;28;20240;-77
2021/11/02 01:47:45;;;;;;;5.43;2.17;;;7.70;99.90;;;;;;5102725;28;20233;-77
2021/11/02 01:50:13;;;;;;;3.60;1.90;;;7.90;99.90;;;;;;5099794;28;20224;-77
2021/11/02 01:52:41;;;;;;;4.93;2.07;;;8.00;99.90;;;;;;5096156;28;20229;-77
2021/11/02 01:55:11;;;;;;;5.77;2.50;;;8.00;99.90;;;;;;5099519;28;20189;-77
2021/11/02 01:57:40;;;;;;;5.20;2.00;;;7.90;99.90;;;;;;5103540;28;20233;-77
2021/11/02 02:00:11;;;;;;;4.70;1.97;;;8.00;99.90;;;;;;5102779;28;20244;-70
2021/11/02 02:02:48;;;;;;;4.43;2.20;;;8.00;99.90;;;;;;5104564;28;20214;-71
2021/11/02 02:05:23;;;;;;;4.23;1.80;;;8.00;99.90;;;;;;5101253;28;20647;-74
2021/11/02 02:08:02;;;;;;;5.37;1.90;;;8.00;99.90;;;;;;5114075;28;20304;-71
2021/11/02 02:10:40;;;;;;;3.57;1.73;;;7.90;99.90;;;;;;5112658;28;20695;-77
2021/11/02 02:13:17;;;;;;;4.73;2.27;;;7.90;99.90;;;;;;5106010;28;20274;-77
2021/11/02 02:15:49;;;;;;;5.80;2.10;;;7.90;99.90;;;;;;5110129;28;20213;-77
2021/11/02 02:18:19;;;;;;;3.17;2.30;;;7.80;99.90;;;;;;5098648;28;20288;-77
2021/11/02 02:21:12;;;;;;;4.63;1.90;;;7.80;99.90;;;;;;5099175;28;20201;-77
2021/11/02 02:24:14;;;;;;;4.80;1.90;;;7.90;99.90;;;;;;5096227;28;20541;-77
2021/11/02 02:26:55;;;;;;;4.57;2.00;;;7.90;99.90;;;;;;5093231;28;20262;-77
2021/11/02 02:29:25;;;;;;;4.40;2.10;;;7.90;99.90;;;;;;5094279;28;20267;-77
2021/11/02 02:31:56;;;;;;;7.40;2.20;;;8.00;99.90;;;;;;5113503;28;20205;-77
2021/11/02 02:34:26;;;;;;;6.00;2.03;;;8.00;99.90;;;;;;5108746;28;20217;-77
2021/11/02 02:36:56;;;;;;;5.10;1.63;;;7.90;99.90;;;;;;5111571;28;20208;-77
2021/11/02 02:39:25;;;;;;;2.33;1.83;;;7.80;99.90;;;;;;5112187;28;20250;-77
2021/11/02 02:41:53;;;;;;;5.00;2.17;;;7.70;99.90;;;;;;5109544;28;20209;-77
2021/11/02 02:44:20;;;;;;;7.63;2.27;;;7.70;99.90;;;;;;5092550;28;20601;-77
2021/11/02 02:46:50;;;;;;;7.50;2.00;;;7.60;99.90;;;;;;5103266;28;20205;-77
2021/11/02 02:49:19;;;;;;;3.80;1.87;;;7.60;99.90;;;;;;5108348;28;20535;-77
2021/11/02 02:51:47;;;;;;;4.33;2.03;;;7.50;99.90;;;;;;5095731;28;20259;-77
2021/11/02 02:54:16;;;;;;;3.07;1.70;;;7.60;99.90;;;;;;5093717;28;20282;-77
2021/11/02 02:56:45;;;;;;;4.17;2.20;;;7.60;99.90;;;;;;5103865;28;20254;-77
2021/11/02 02:59:14;;;;;;;5.13;2.20;;;7.60;99.90;;;;;;5096133;28;20288;-77
2021/11/02 03:01:41;;;;;;;4.90;2.00;;;7.70;99.90;;;;;;5093678;28;20198;-77
2021/11/02 03:04:15;;;;;;;5.23;1.87;;;7.40;99.90;;;;;;5092373;28;20202;-77
2021/11/02 03:06:51;;;;;;;8.57;2.00;;;7.60;99.90;;;;;;5097245;28;20202;-77
2021/11/02 03:09:19;;;;;;;4.67;2.47;;;7.40;99.90;;;;;;5088795;28;20350;-77
2021/11/02 03:11:46;;;;;;;6.60;2.37;;;7.30;99.90;;;;;;5104415;28;20193;-77
2021/11/02 03:14:29;;;;;;;5.33;2.47;;;7.10;99.90;;;;;;5113432;28;20213;-77
2021/11/02 03:17:01;;;;;;;4.30;2.10;;;7.00;99.90;;;;;;5106241;28;20632;-77
2021/11/02 03:48:14;;;;;;;6.63;2.60;;;6.30;99.90;;;;;;5122058;28;20234;-78
2021/11/02 03:51:01;;;;;;;5.83;2.80;;;6.40;99.90;;;;;;5122724;27;20201;-77
2021/11/02 03:56:29;;;;;;;6.50;3.20;;;6.60;99.90;;;;;;5122787;28;20561;-77
2021/11/02 03:59:19;;;;;;;6.37;2.90;;;6.60;99.90;;;;;;5129062;27;20242;-77
2021/11/02 04:02:02;;;;;;;6.03;3.10;;;6.50;99.90;;;;;;5121649;27;20228;-77
2021/11/02 04:27:11;;;;;;;7.60;2.97;;;6.20;99.90;;;;;;5148022;27;20673;-78
2021/11/02 05:48:00;;;;;;;7.57;4.57;;;6.10;99.90;;;;;;5122196;27;20197;-73
2021/11/02 05:58:37;;;;;;;10.47;5.30;;;6.20;99.90;;;;;;5128858;27;20204;-73
2021/11/02 06:01:08;;;;;;;10.30;5.23;;;6.10;99.90;;;;;;5099529;27;20638;-73
2021/11/02 06:06:29;;;;;;;9.90;5.90;;;6.40;99.90;;;;;;5118227;27;20221;-73
2021/11/02 06:09:09;;;;;;;10.43;6.40;;;6.50;99.90;;;;;;5128871;27;20218;-73
2021/11/02 06:28:49;;;;;;;12.83;6.20;;;7.10;99.90;;;;;;5099972;27;20248;-72
2021/11/02 06:31:19;;;;;;;9.40;5.77;;;7.00;99.90;;;;;;5092804;28;20202;-72
2021/11/02 06:33:57;;;;;;;10.77;6.30;;;7.10;99.90;;;;;;5107099;27;20205;-72
2021/11/02 06:48:10;;;;;;;8.10;5.63;;;7.00;99.90;;;;;;5039301;28;20194;-80
2021/11/02 06:53:42;;;;;;;12.30;5.93;;;7.20;99.90;;;;;;5025771;28;20337;-77
2021/11/02 07:18:56;;;;;;;8.83;5.77;;;7.80;99.90;;;;;;5028768;28;20213;-73
2021/11/02 07:21:28;;;;;;;7.73;5.07;;;7.80;99.90;;;;;;5043791;28;20310;-72
2021/11/02 07:24:01;;;;;;;8.43;5.87;;;7.90;99.90;;;;;;5044924;28;20199;-72
2021/11/02 07:26:43;;;;;;;11.70;6.30;;;7.90;99.90;;;;;;5043757;28;20211;-72
2021/11/02 08:47:24;;;;;;;6.20;4.33;;;10.30;99.90;;;;;;5029336;28;20203;-76
2021/11/02 08:49:51;;;;;;;7.97;4.20;;;10.20;99.90;;;;;;5044918;27;20237;-76
2021/11/02 08:52:20;;;;;;;8.13;4.50;;;10.10;99.90;;;;;;5041791;27;20204;-77
2021/11/02 08:54:50;;;;;;;8.57;5.00;;;10.10;99.90;;;;;;5045262;27;20244;-77
2021/11/02 08:57:18;;;;;;;6.80;3.77;;;10.10;99.90;;;;;;5033333;27;20207;-77
2021/11/02 08:59:46;;;;;;;7.40;4.03;;;10.20;99.90;;;;;;5029724;28;20208;-77
2021/11/02 09:02:22;;;;;;;5.80;3.67;;;10.20;99.90;;;;;;5028345;28;20259;-76
2021/11/02 09:04:54;;;;;;;7.53;3.83;;;10.30;99.90;;;;;;5025943;28;20634;-77
2021/11/02 09:07:27;;;;;;;7.23;3.73;;;10.40;99.90;;;;;;5009955;28;20243;-77
2021/11/02 09:09:58;;;;;;;6.33;3.77;;;10.50;99.90;;;;;;5009091;28;20257;-77
2021/11/02 09:12:30;;;;;;;12.37;3.90;;;10.50;99.90;;;;;;5014381;28;20239;-77
2021/11/02 09:14:59;;;;;;;8.50;3.67;;;10.60;99.90;;;;;;5030117;28;20644;-77
2021/11/02 09:17:29;;;;;;;7.13;4.00;;;10.70;99.90;;;;;;5028555;28;20236;-77
2021/11/02 09:19:59;;;;;;;6.33;3.60;;;10.70;99.90;;;;;;5030001;28;20416;-77
2021/11/02 09:22:26;;;;;;;5.50;3.83;;;10.90;99.90;;;;;;5028978;28;20224;-76
2021/11/02 09:24:54;;;;;;;6.40;3.63;;;11.00;99.90;;;;;;5029751;28;20225;-76
2021/11/02 09:27:22;;;;;;;7.33;3.97;;;11.10;99.90;;;;;;5029059;28;20208;-76
2021/11/02 09:29:49;;;;;;;5.27;3.47;;;11.30;99.90;;;;;;5029861;28;20670;-77
2021/11/02 09:32:16;;;;;;;10.07;3.50;;;11.30;99.90;;;;;;5028590;28;20204;-76
2021/11/02 09:34:43;;;;;;;7.30;3.90;;;11.40;99.90;;;;;;5029555;28;20264;-77
2021/11/02 09:37:17;;;;;;;5.67;3.13;;;11.50;99.90;;;;;;5028905;28;20208;-77
2021/11/02 09:39:48;;;;;;;4.57;2.67;;;11.50;99.90;;;;;;5029254;28;20290;-76
2021/11/02 09:42:42;;;;;;;6.40;3.30;;;11.40;99.90;;;;;;5027936;28;20235;-77
2021/11/02 09:45:36;;;;;;;6.30;3.30;;;11.40;99.90;;;;;;5029417;28;20252;-77
2021/11/02 09:48:37;;;;;;;4.33;2.67;;;11.30;99.90;;;;;;5028124;28;20203;-77
2021/11/02 09:51:52;;;;;;;6.20;2.97;;;11.40;99.90;;;;;;5029498;28;20199;-77
2021/11/02 09:54:59;;;;;;;5.67;3.03;;;11.40;99.90;;;;;;5033265;28;20248;-77
2021/11/02 09:58:03;;;;;;;6.37;3.00;;;11.50;99.90;;;;;;5028678;28;20223;-77
2021/11/02 10:00:50;;;;;;;3.83;2.80;;;11.50;99.90;;;;;;5029119;28;20253;-76
2021/11/02 10:03:59;;;;;;;4.83;2.80;;;11.40;99.90;;;;;;5028402;28;20528;-77
2021/11/02 10:06:39;;;;;;;5.10;2.70;;;11.50;99.90;;;;;;5027875;28;20202;-77
2021/11/02 10:09:09;;;;;;;5.60;3.00;;;11.50;99.90;;;;;;5112226;28;20219;-77
2021/11/02 10:11:45;;;;;;;4.57;2.73;;;11.60;99.90;;;;;;5109081;28;20205;-79
2021/11/02 10:14:44;;;;;;;5.30;3.23;;;11.60;99.90;;;;;;5028404;28;20199;-72
2021/11/02 10:17:37;;;;;;;5.43;3.07;;;11.60;99.90;;;;;;5027072;28;20559;-72
2021/11/02 10:20:10;;;;;;;4.77;2.90;;;11.60;99.90;;;;;;5009447;28;20659;-72
2021/11/02 10:23:10;;;;;;;4.03;2.90;;;11.70;99.90;;;;;;5013106;28;20231;-72
2021/11/02 10:26:25;;;;;;;3.10;2.70;;;11.70;99.90;;;;;;5028737;28;20211;-72
2021/11/02 10:29:28;;;;;;;4.33;2.67;;;11.80;99.90;;;;;;5048649;28;20265;-72
2021/11/02 10:32:03;;;;;;;6.10;2.97;;;11.90;99.90;;;;;;4966986;28;20210;-72
2021/11/02 10:34:46;;;;;;;6.97;2.87;;;11.80;99.90;;;;;;5016377;28;20604;-73
2021/11/02 10:37:23;;;;;;;4.33;3.10;;;11.80;99.90;;;;;;5027601;28;20645;-72
2021/11/02 10:40:08;;;;;;;6.57;2.90;;;11.80;99.90;;;;;;5111987;28;20200;-72
2021/11/02 10:42:53;;;;;;;3.80;2.67;;;11.80;99.90;;;;;;5077258;28;20227;-72
2021/11/02 10:45:23;;;;;;;5.80;3.07;;;11.70;99.90;;;;;;5028375;28;20240;-72
2021/11/02 10:48:00;;;;;;;5.67;2.87;;;11.70;99.90;;;;;;5028361;28;20249;-72
2021/11/02 10:50:30;;;;;;;7.40;3.33;;;11.70;99.90;;;;;;5027736;28;20320;-72
2021/11/02 10:52:58;;;;;;;3.70;2.67;;;11.90;99.90;;;;;;5028636;28;20248;-72
2021/11/02 10:55:37;;;;;;;7.37;3.27;;;12.00;99.90;;;;;;5026460;28;20315;-72
2021/11/02 10:58:32;;;;;;;5.60;3.27;;;11.90;99.90;;;;;;5028035;28;20207;-72
2021/11/02 11:01:03;;;;;;;5.77;2.93;;;11.90;99.90;;;;;;5028014;28;20220;-72
2021/11/02 11:03:33;;;;;;;3.83;2.83;;;12.10;99.90;;;;;;5027915;28;20200;-72
2021/11/02 11:06:01;;;;;;;5.67;3.10;;;12.00;99.90;;;;;;5027682;28;20191;-72
2021/11/02 11:08:31;;;;;;;6.27;3.00;;;12.10;99.90;;;;;;5026952;28;20260;-72
2021/11/02 11:11:00;;;;;;;5.23;2.77;;;12.70;99.90;;;;;;5027212;28;20196;-72
2021/11/02 11:13:29;;;;;;;4.73;2.60;;;12.80;99.90;;;;;;5027623;28;20597;-72
2021/11/02 11:16:01;;;;;;;3.67;2.90;;;12.90;99.90;;;;;;5027798;28;20204;-72
2021/11/02 11:18:41;;;;;;;6.87;3.30;;;12.90;99.90;;;;;;5027219;28;20204;-72
2021/11/02 11:21:10;;;;;;;5.63;3.00;;;13.00;99.90;;;;;;5027990;28;20270;-72
2021/11/02 11:23:39;;;;;;;5.63;3.00;;;13.40;99.90;;;;;;5028001;28;20215;-73
2021/11/02 11:26:07;;;;;;;6.97;3.90;;;13.70;99.90;;;;;;5027164;28;20862;-72
2021/11/02 11:28:36;;;;;;;3.77;3.10;;;13.30;99.90;;;;;;5030479;28;20211;-72
2021/11/02 11:31:04;;;;;;;4.27;3.10;;;13.10;99.90;;;;;;5031017;28;20206;-72
2021/11/02 11:33:32;;;;;;;4.93;3.20;;;13.00;99.90;;;;;;5030961;28;20204;-73
2021/11/02 11:36:03;;;;;;;6.83;3.37;;;12.90;99.90;;;;;;5030765;28;20235;-73
2021/11/02 11:38:37;;;;;;;32.53;19.93;;;12.80;99.90;;;;;;5031162;28;20591;-73
2021/11/02 11:41:05;;;;;;;4.80;3.30;;;12.70;99.90;;;;;;5030835;28;20228;-72
2021/11/02 11:43:33;;;;;;;8.13;3.47;;;12.40;99.90;;;;;;5031086;28;20657;-72
2021/11/02 11:46:03;;;;;;;6.73;3.37;;;12.70;99.90;;;;;;5029050;28;20543;-72
2021/11/02 11:48:30;;;;;;;4.37;3.27;;;12.70;99.90;;;;;;5029908;28;20253;-72
2021/11/02 11:50:59;;;;;;;4.40;3.20;;;12.70;99.90;;;;;;5030382;28;20251;-72
2021/11/02 11:53:29;;;;;;;5.03;3.23;;;12.40;99.90;;;;;;5030790;28;20285;-72
2021/11/02 11:56:06;;;;;;;4.77;2.83;;;12.60;99.90;;;;;;5030157;28;20204;-72
2021/11/02 11:58:46;;;;;;;4.80;3.30;;;12.50;99.90;;;;;;5030959;28;20200;-72
2021/11/02 12:01:21;;;;;;;3.50;2.70;;;12.60;99.90;;;;;;5030609;28;20268;-72
2021/11/02 12:03:57;;;;;;;5.17;2.83;;;12.50;99.90;;;;;;5031400;28;20211;-72
2021/11/02 12:06:27;;;;;;;5.67;3.17;;;12.40;99.90;;;;;;5030531;28;20211;-72
2021/11/02 12:08:59;;;;;;;6.73;3.30;;;12.30;99.90;;;;;;5030692;28;20257;-72
2021/11/02 12:11:29;;;;;;;7.70;3.97;;;12.10;99.90;;;;;;5029204;28;20208;-72
2021/11/02 12:14:06;;;;;;;5.73;3.00;;;12.30;99.90;;;;;;5029955;28;20264;-72
2021/11/02 12:16:37;;;;;;;4.23;2.67;;;12.20;99.90;;;;;;5030292;28;20208;-72
2021/11/02 12:19:08;;;;;;;6.03;3.07;;;12.10;99.90;;;;;;5030999;28;20654;-72
2021/11/02 12:21:38;;;;;;;3.03;2.70;;;12.20;99.90;;;;;;5030279;28;20237;-72
2021/11/02 12:24:09;;;;;;;5.00;2.70;;;12.20;99.90;;;;;;5030712;28;20593;-72
2021/11/02 12:26:43;;;;;;;5.00;2.73;;;12.20;99.90;;;;;;5029730;28;20215;-72
2021/11/02 12:29:12;;;;;;;5.30;2.77;;;12.00;99.90;;;;;;5030549;28;20267;-72
2021/11/02 12:31:39;;;;;;;5.47;2.67;;;11.90;99.90;;;;;;5029169;28;20619;-72
2021/11/02 12:34:14;;;;;;;7.67;2.47;;;12.00;99.90;;;;;;5030568;28;20199;-72
2021/11/02 12:36:49;;;;;;;2.73;2.27;;;11.90;99.90;;;;;;5029433;28;20199;-72
2021/11/02 12:39:20;;;;;;;3.33;2.17;;;11.90;99.90;;;;;;5030304;28;20259;-72
2021/11/02 12:41:52;;;;;;;3.20;2.20;;;11.90;99.90;;;;;;5029506;28;20230;-73
2021/11/02 12:44:25;;;;;;;3.67;2.80;;;12.00;99.90;;;;;;5030185;28;20208;-72
2021/11/02 12:46:53;;;;;;;3.43;2.50;;;12.00;99.90;;;;;;5029047;28;20210;-72
2021/11/02 12:49:29;;;;;;;5.07;2.53;;;12.00;99.90;;;;;;5030256;28;20192;-72
2021/11/02 12:52:04;;;;;;;3.03;2.10;;;12.00;99.90;;;;;;5029896;28;20211;-72
2021/11/02 12:54:34;;;;;;;4.03;2.07;;;11.90;99.90;;;;;;5024564;28;20211;-72
2021/11/02 12:57:08;;;;;;;4.47;2.57;;;12.00;99.90;;;;;;5053917;27;20347;-72
2021/11/02 12:59:46;;;;;;;5.43;2.80;;;11.80;99.90;;;;;;5030137;28;20214;-72
2021/11/02 13:02:19;;;;;;;2.77;2.20;;;11.90;99.90;;;;;;5029087;28;20220;-72
2021/11/02 13:04:50;;;;;;;4.53;2.40;;;12.00;99.90;;;;;;5028476;28;20230;-72
2021/11/02 13:07:17;;;;;;;4.73;2.53;;;11.90;99.90;;;;;;5029914;28;20630;-72
2021/11/02 13:09:50;;;;;;;3.07;2.57;;;11.90;99.90;;;;;;5010727;28;20265;-72
2021/11/02 13:12:23;;;;;;;2.23;2.03;;;11.80;99.90;;;;;;5016395;28;20206;-72
2021/11/02 13:14:50;;;;;;;6.80;2.30;;;11.90;99.90;;;;;;5030275;28;20289;-72
2021/11/02 13:17:23;;;;;;;3.37;2.20;;;11.90;99.90;;;;;;5029150;28;20212;-72
2021/11/02 13:19:53;;;;;;;4.83;2.03;;;12.00;99.90;;;;;;5029687;28;20202;-72
2021/11/02 13:22:21;;;;;;;4.07;1.93;;;12.00;99.90;;;;;;5028625;28;20226;-72
2021/11/02 13:25:04;;;;;;;2.83;2.10;;;12.00;99.90;;;;;;5029878;28;20539;-72
2021/11/02 13:27:36;;;;;;;3.07;1.93;;;11.90;99.90;;;;;;5028008;28;20632;-72
2021/11/02 13:30:33;;;;;;;2.83;2.20;;;11.90;99.90;;;;;;5029608;28;20260;-72
2021/11/02 13:33:03;;;;;;;3.03;1.97;;;11.90;99.90;;;;;;5028329;28;20207;-72
2021/11/02 13:35:51;;;;;;;5.63;2.30;;;11.90;99.90;;;;;;5030161;28;20231;-72
2021/11/02 13:38:31;;;;;;;2.33;1.80;;;11.90;99.90;;;;;;5029840;28;20208;-77
2021/11/02 13:41:03;;;;;;;2.67;1.73;;;11.90;99.90;;;;;;5027474;28;20218;-72
2021/11/02 13:43:32;;;;;;;4.07;2.00;;;11.90;99.90;;;;;;5029599;28;20255;-72
2021/11/02 13:45:59;;;;;;;2.33;1.73;;;11.90;99.90;;;;;;5029273;28;20210;-72
2021/11/02 13:48:27;;;;;;;2.53;1.73;;;11.90;99.90;;;;;;5029288;28;20207;-72
2021/11/02 13:50:55;;;;;;;3.13;1.77;;;11.90;99.90;;;;;;5029157;28;20642;-72
2021/11/02 13:53:22;;;;;;;3.13;2.17;;;12.00;99.90;;;;;;5030030;28;20204;-72
2021/11/02 13:55:50;;;;;;;2.77;1.93;;;11.90;99.90;;;;;;5028798;28;20613;-72
2021/11/02 13:58:19;;;;;;;2.57;1.67;;;12.00;99.90;;;;;;5029961;28;20211;-72
2021/11/02 14:00:47;;;;;;;3.43;2.00;;;12.20;99.90;;;;;;5029505;28;20211;-72
2021/11/02 14:03:17;;;;;;;3.47;2.10;;;12.20;99.90;;;;;;5029230;28;20273;-73
2021/11/02 14:05:46;;;;;;;1.87;1.50;;;12.20;99.90;;;;;;5029311;28;20562;-72
2021/11/02 14:08:20;;;;;;;4.63;2.03;;;11.90;99.90;;;;;;5028660;28;20214;-72
2021/11/02 14:10:53;;;;;;;4.77;2.10;;;12.10;99.90;;;;;;5028772;28;20733;-73
2021/11/02 14:13:39;;;;;;;2.97;1.87;;;12.10;99.90;;;;;;5029691;28;20609;-72
2021/11/02 14:16:06;;;;;;;3.20;2.03;;;12.00;99.90;;;;;;5028100;28;20207;-72
2021/11/02 14:18:35;;;;;;;3.93;2.00;;;12.00;99.90;;;;;;5029322;28;20301;-72
2021/11/02 14:21:02;;;;;;;3.33;2.00;;;12.00;99.90;;;;;;5029674;28;20210;-72
2021/11/02 14:23:38;;;;;;;2.53;2.00;;;12.00;99.90;;;;;;5029277;28;20228;-72
2021/11/02 14:26:26;;;;;;;3.13;2.50;;;11.90;99.90;;;;;;5029115;28;20207;-72
2021/11/02 14:28:56;;;;;;;3.10;2.00;;;12.10;99.90;;;;;;5029009;28;20298;-72
2021/11/02 14:31:52;;;;;;;3.10;2.10;;;12.10;99.90;;;;;;5029186;28;20210;-72
2021/11/02 14:34:47;;;;;;;3.47;2.30;;;12.10;99.90;;;;;;5029360;28;20696;-72
2021/11/02 14:37:16;;;;;;;3.57;2.30;;;12.10;99.90;;;;;;5028068;28;20199;-73
2021/11/02 14:40:03;;;;;;;2.90;2.03;;;12.10;99.90;;;;;;5009654;28;20216;-73
2021/11/02 14:42:50;;;;;;;3.90;2.13;;;12.10;99.90;;;;;;5025340;28;20207;-72
2021/11/02 14:45:20;;;;;;;4.40;2.20;;;12.00;99.90;;;;;;5029570;28;20203;-73
2021/11/02 14:47:48;;;;;;;3.47;2.30;;;12.00;99.90;;;;;;5027388;28;20231;-72
2021/11/02 14:50:36;;;;;;;2.93;2.27;;;12.00;99.90;;;;;;5025566;28;20204;-72
2021/11/02 14:53:29;;;;;;;2.50;2.10;;;11.90;99.90;;;;;;5034918;28;20200;-72
2021/11/02 14:55:58;;;;;;;4.03;2.13;;;11.80;99.90;;;;;;5027656;28;20613;-72
2021/11/02 14:58:49;;;;;;;4.70;2.10;;;11.70;99.90;;;;;;5028052;28;20714;-72
2021/11/02 15:01:20;;;;;;;2.33;1.90;;;11.50;99.90;;;;;;5025022;28;20207;-72
2021/11/02 15:03:55;;;;;;;3.33;1.90;;;11.40;99.90;;;;;;5029012;28;20310;-72
2021/11/02 15:06:29;;;;;;;3.43;2.10;;;11.30;99.90;;;;;;5031159;28;20213;-72
2021/11/02 15:08:58;;;;;;;3.20;2.00;;;11.20;99.90;;;;;;5029870;28;20230;-72
2021/11/02 15:11:25;;;;;;;2.57;1.93;;;11.10;99.90;;;;;;5031427;28;20200;-72
2021/11/02 15:13:54;;;;;;;3.40;1.97;;;11.00;99.90;;;;;;5031550;28;20562;-72
2021/11/02 15:16:24;;;;;;;3.10;2.07;;;10.80;99.90;;;;;;5030358;28;20204;-72
2021/11/02 15:18:52;;;;;;;2.97;2.10;;;10.70;99.90;;;;;;5030336;28;20903;-72
2021/11/02 15:21:29;;;;;;;10.53;2.40;;;10.60;99.90;;;;;;5030253;28;20211;-72
2021/11/02 15:23:56;;;;;;;3.00;2.23;;;10.70;99.90;;;;;;5029847;28;20316;-72
2021/11/02 15:26:23;;;;;;;2.80;1.90;;;10.60;99.90;;;;;;5030926;28;20210;-72
2021/11/02 15:28:52;;;;;;;15.17;8.70;;;10.50;99.90;;;;;;5033120;27;20576;-72
2021/11/02 15:31:22;;;;;;;7.93;4.30;;;10.30;99.90;;;;;;5031078;28;20221;-79
2021/11/02 15:33:50;;;;;;;3.53;2.10;;;10.20;99.90;;;;;;5040491;27;20233;-72
2021/11/02 15:36:19;;;;;;;3.13;1.90;;;10.00;99.90;;;;;;5028596;28;20213;-77
2021/11/02 15:39:00;;;;;;;3.00;1.70;;;9.90;99.90;;;;;;5030813;28;20303;-72
2021/11/02 15:41:28;;;;;;;2.87;2.10;;;9.80;99.90;;;;;;5031061;28;20207;-73
2021/11/02 15:43:58;;;;;;;2.70;1.90;;;9.70;99.90;;;;;;5040494;27;20689;-73
2021/11/02 15:46:37;;;;;;;2.40;2.00;;;9.60;99.90;;;;;;5045094;27;20227;-73
2021/11/02 15:49:05;;;;;;;3.70;1.80;;;9.50;99.90;;;;;;5031077;28;20235;-73
2021/11/02 15:51:34;;;;;;;5.20;2.10;;;9.40;99.90;;;;;;5032796;27;20204;-73
2021/11/02 15:54:08;;;;;;;2.80;1.87;;;9.30;99.90;;;;;;5030676;28;20208;-73
2021/11/02 15:56:35;;;;;;;4.80;2.30;;;9.30;99.90;;;;;;5030212;28;20208;-73
2021/11/02 15:59:04;;;;;;;4.13;2.30;;;9.20;99.90;;;;;;5030384;28;20208;-73
2021/11/02 16:01:36;;;;;;;5.77;3.10;;;9.10;99.90;;;;;;5030136;28;20216;-73
2021/11/02 16:04:17;;;;;;;3.50;2.40;;;9.10;99.90;;;;;;5029563;28;20703;-73
2021/11/02 16:07:07;;;;;;;4.03;2.97;;;9.00;99.90;;;;;;5029657;28;20627;-73
2021/11/02 16:09:54;;;;;;;3.43;2.67;;;9.00;99.90;;;;;;5024972;28;20300;-72
2021/11/02 16:12:27;;;;;;;3.03;2.50;;;8.90;99.90;;;;;;5030365;28;20283;-73
2021/11/02 16:14:59;;;;;;;4.97;3.20;;;9.00;99.90;;;;;;5028443;28;20208;-72
2021/11/02 16:17:30;;;;;;;3.57;2.60;;;8.90;99.90;;;;;;5030314;28;20204;-73
2021/11/02 16:19:59;;;;;;;5.07;2.70;;;8.50;99.90;;;;;;5030144;28;20204;-73
2021/11/02 16:22:27;;;;;;;3.53;2.10;;;8.40;99.90;;;;;;5029210;28;20214;-71
2021/11/02 16:25:11;;;;;;;4.20;2.27;;;8.10;99.90;;;;;;5031802;27;20295;-72
2021/11/02 16:27:38;;;;;;;3.73;2.47;;;7.80;99.90;;;;;;5029754;28;20212;-72
2021/11/02 16:30:17;;;;;;;4.07;2.73;;;7.80;99.90;;;;;;5030085;28;20244;-72
2021/11/02 16:32:49;;;;;;;3.40;2.27;;;8.00;99.90;;;;;;5029563;28;20196;-73
2021/11/02 16:35:34;;;;;;;3.13;2.13;;;8.00;99.90;;;;;;5028110;28;20649;-73
2021/11/02 16:38:23;;;;;;;6.07;2.40;;;8.00;99.90;;;;;;5026245;28;20583;-72
2021/11/02 16:40:51;;;;;;;3.80;2.40;;;8.00;99.90;;;;;;5028754;28;20212;-73
2021/11/02 16:43:34;;;;;;;3.20;2.53;;;8.00;99.90;;;;;;5029726;28;20585;-73
2021/11/02 16:46:02;;;;;;;8.57;3.93;;;7.90;99.90;;;;;;5026599;28;20211;-73
2021/11/02 16:48:39;;;;;;;3.23;2.40;;;7.80;99.90;;;;;;5029448;28;20204;-73
2021/11/02 16:51:07;;;;;;;2.67;2.40;;;7.50;99.90;;;;;;5030113;28;20617;-78
2021/11/02 16:53:35;;;;;;;5.37;3.30;;;7.30;99.90;;;;;;5035290;27;20200;-79
2021/11/02 16:56:05;;;;;;;7.00;3.57;;;7.40;99.90;;;;;;5049450;27;20207;-79
2021/11/02 16:58:35;;;;;;;7.90;4.10;;;7.40;99.90;;;;;;5027181;28;20646;-79
2021/11/02 17:01:22;;;;;;;10.30;4.20;;;7.50;99.90;;;;;;5031915;27;20207;-79
2021/11/02 17:03:51;;;;;;;10.87;3.90;;;7.70;99.90;;;;;;5028324;28;20307;-79
2021/11/02 17:06:20;;;;;;;8.83;3.50;;;7.70;99.90;;;;;;5053414;27;20240;-79
2021/11/02 17:09:11;;;;;;;9.80;3.87;;;7.70;99.90;;;;;;5028536;28;20256;-79
2021/11/02 17:12:00;;;;;;;5.87;3.53;;;7.50;99.90;;;;;;5029785;28;20654;-79
2021/11/02 17:14:28;;;;;;;6.07;3.50;;;7.60;99.90;;;;;;5029047;28;20208;-79
2021/11/02 17:16:58;;;;;;;8.83;3.47;;;7.60;99.90;;;;;;5027329;28;20207;-79
2021/11/02 17:19:28;;;;;;;7.63;3.50;;;7.80;99.90;;;;;;5030115;28;20564;-79
2021/11/02 17:21:58;;;;;;;8.43;3.40;;;7.90;99.90;;;;;;5028536;28;20203;-79
2021/11/02 17:24:26;;;;;;;8.23;3.70;;;7.50;99.90;;;;;;5024229;28;20224;-79
2021/11/02 17:26:56;;;;;;;9.20;3.73;;;7.30;99.90;;;;;;5028635;28;20563;-79
2021/11/02 17:29:25;;;;;;;7.87;4.00;;;7.20;99.90;;;;;;5029275;28;20218;-79
2021/11/02 17:31:55;;;;;;;6.73;3.27;;;7.20;99.90;;;;;;5029682;28;20254;-79
2021/11/02 17:34:23;;;;;;;7.30;3.50;;;7.20;99.90;;;;;;5028698;28;20196;-79
2021/11/02 17:37:01;;;;;;;7.07;3.90;;;7.40;99.90;;;;;;5031453;27;20212;-79
2021/11/02 17:39:35;;;;;;;8.77;3.93;;;7.50;99.90;;;;;;5029095;28;20204;-79
2021/11/02 17:42:04;;;;;;;10.53;4.60;;;7.60;99.90;;;;;;5028997;28;20565;-79
2021/11/02 17:44:32;;;;;;;8.03;3.90;;;7.70;99.90;;;;;;5025104;28;20227;-79
2021/11/02 17:47:00;;;;;;;5.97;4.50;;;7.70;99.90;;;;;;5028275;28;20742;-79
2021/11/02 17:49:27;;;;;;;7.00;4.37;;;7.70;99.90;;;;;;5029376;28;20204;-79
2021/11/02 17:51:57;;;;;;;8.90;4.23;;;7.70;99.90;;;;;;5025397;28;20214;-79
2021/11/02 17:54:26;;;;;;;10.90;4.47;;;7.70;99.90;;;;;;5030229;28;20204;-79
2021/11/02 17:56:54;;;;;;;9.57;4.57;;;7.80;99.90;;;;;;5028802;28;20572;-79
2021/11/02 17:59:25;;;;;;;11.97;3.97;;;7.80;99.90;;;;;;5027747;28;20290;-79